Time;durP1;ratioP1;P1;durP2;ratioP2;P2;SDS_P1;SDS_P2;PMS_P1;PMS_P2;Temp;Humidity;BMP_temperature;BMP_pressure;BME280_temperature;BME280_humidity;BME280_pressure;Samples;Min_cycle;Max_cycle;Signal;HPM_P1;HPM_P2
2022/12/17 13:05:54;;;;;;;42.00;19.13;;;;;;;-1.13;63.89;102108.84;682808;29;1201;-87
2022/12/17 13:06:40;;;;;;;40.90;19.50;;;;;;;-0.96;63.92;102119.81;682916;29;1218;-87
2022/12/17 13:07:00;;;;;;;42.33;21.63;;;;;;;-1.02;63.68;102106.41;682790;29;833;-87
2022/12/17 13:07:27;;;;;;;44.30;22.10;;;;;;;-0.99;63.86;102104.16;680264;29;1163;-87
2022/12/17 13:07:47;;;;;;;47.33;22.52;;;;;;;-0.95;63.88;102108.78;685502;28;1219;-87
2022/12/17 13:08:18;;;;;;;44.25;21.65;;;;;;;-0.87;63.35;102120.69;683060;29;1100;-87
2022/12/17 13:08:39;;;;;;;45.40;21.42;;;;;;;-0.87;63.46;102109.56;688030;28;1201;-87
2022/12/17 13:09:37;;;;;;;42.15;20.92;;;;;;;-0.78;63.25;102127.47;690969;28;795;-87
2022/12/17 13:09:58;;;;;;;40.88;20.63;;;;;;;-0.77;63.24;102124.13;682679;28;1457;-87
2022/12/17 13:10:28;;;;;;;39.60;20.60;;;;;;;-0.85;62.92;102108.03;682706;29;992;-87
2022/12/17 13:10:51;;;;;;;40.70;21.30;;;;;;;-0.78;63.33;102117.19;682781;29;965;-86
2022/12/17 13:11:29;;;;;;;44.65;22.50;;;;;;;-0.74;63.03;102114.19;688267;28;1083;-87
2022/12/17 13:12:07;;;;;;;43.78;22.15;;;;;;;-0.75;63.35;102114.94;677927;29;1237;-87
2022/12/17 13:12:32;;;;;;;42.00;21.67;;;;;;;-0.71;63.19;102106.78;677937;29;1070;-87
2022/12/17 13:12:53;;;;;;;40.90;21.55;;;;;;;-0.66;62.87;102110.69;677613;29;989;-87
2022/12/17 13:13:33;;;;;;;41.92;21.48;;;;;;;-0.54;62.93;102125.44;685376;28;1085;-87
2022/12/17 13:14:04;;;;;;;45.45;21.80;;;;;;;-0.63;62.74;102116.09;685289;28;1240;-86
2022/12/17 13:14:43;;;;;;;47.10;21.92;;;;;;;-0.61;62.81;102114.63;680248;29;1298;-87
2022/12/17 13:15:04;;;;;;;48.90;22.65;;;;;;;-0.71;62.76;102119.59;674841;29;1304;-87
2022/12/17 13:15:36;;;;;;;49.88;23.17;;;;;;;-0.81;62.84;102102.44;677405;29;1954;-87
2022/12/17 13:16:24;;;;;;;44.08;22.05;;;;;;;-0.69;62.84;102124.88;680062;29;1255;-87
2022/12/17 13:16:55;;;;;;;42.60;22.80;;;;;;;-0.80;63.08;102100.78;682673;29;1129;-87
2022/12/17 13:17:15;;;;;;;40.03;22.65;;;;;;;-0.67;62.76;102119.16;679953;29;965;-87
2022/12/17 13:18:01;;;;;;;40.63;21.73;;;;;;;-0.80;63.07;102101.69;679932;29;1604;-87
2022/12/17 13:18:28;;;;;;;43.92;21.60;;;;;;;-0.64;62.83;102118.56;680261;29;863;-86
2022/12/17 13:19:00;;;;;;;47.90;22.30;;;;;;;-0.69;63.27;102110.41;680128;29;1229;-86
2022/12/17 13:19:39;;;;;;;47.50;22.90;;;;;;;-0.68;62.83;102101.97;680152;29;1274;-87
2022/12/17 13:20:22;;;;;;;43.65;21.95;;;;;;;-0.71;62.95;102091.41;677520;29;1288;-87
2022/12/17 13:20:43;;;;;;;45.95;21.70;;;;;;;-0.59;63.05;102115.66;682886;29;1001;-87
2022/12/17 13:21:15;;;;;;;46.50;22.60;;;;;;;-0.59;63.20;102120.78;685475;28;1299;-87
2022/12/17 13:21:36;;;;;;;46.67;22.17;;;;;;;-0.64;62.97;102105.72;682824;29;1260;-86
2022/12/17 13:22:09;;;;;;;44.60;20.85;;;;;;;-0.63;62.94;102100.72;680100;29;994;-87
2022/12/17 13:22:32;;;;;;;41.25;20.75;;;;;;;-0.70;62.76;102090.63;674843;29;1224;-87
2022/12/17 13:23:39;;;;;;;42.03;21.35;;;;;;;-0.51;62.91;102116.38;680214;29;1397;-87
2022/12/17 13:24:10;;;;;;;43.08;20.88;;;;;;;-0.61;63.02;102104.34;682521;29;1317;-87
2022/12/17 13:24:30;;;;;;;44.75;21.80;;;;;;;-0.64;62.90;102098.03;683769;28;1153;-87
2022/12/17 13:24:54;;;;;;;44.90;22.00;;;;;;;-0.64;62.90;102101.47;684238;28;1128;-87
2022/12/17 13:25:18;;;;;;;44.03;21.95;;;;;;;-0.63;63.08;102095.59;686116;28;993;-87
2022/12/17 13:25:39;;;;;;;41.63;21.40;;;;;;;-0.68;63.09;102091.72;686111;28;1186;-87
2022/12/17 13:26:17;;;;;;;42.38;21.48;;;;;;;-0.69;63.08;102107.84;683757;28;1370;-87
2022/12/17 13:26:38;;;;;;;43.97;22.33;;;;;;;-0.68;63.27;102112.22;683601;29;1244;-87
2022/12/17 13:26:58;;;;;;;42.03;21.63;;;;;;;-0.83;62.90;102095.38;683646;28;1113;-86
2022/12/17 13:27:30;;;;;;;40.88;21.70;;;;;;;-0.87;63.04;102099.31;683403;28;1100;-87
2022/12/17 13:27:51;;;;;;;43.00;21.40;;;;;;;-0.87;62.77;102097.63;683694;29;947;-87
2022/12/17 13:28:26;;;;;;;44.25;21.80;;;;;;;-0.89;62.82;102091.44;684069;29;1026;-87
2022/12/17 13:29:00;;;;;;;43.70;21.40;;;;;;;-0.89;63.19;102088.88;684856;28;1125;-87
2022/12/17 13:29:30;;;;;;;43.50;21.48;;;;;;;-0.76;62.68;102113.16;686713;28;1035;-87
2022/12/17 13:29:51;;;;;;;44.17;22.48;;;;;;;-0.82;62.83;102092.06;686690;28;1370;-87
2022/12/17 13:30:19;;;;;;;43.50;24.60;;;;;;;-0.77;63.00;102106.19;690112;28;1042;-86
2022/12/17 13:30:40;;;;;;;50.75;29.58;;;;;;;-0.81;62.67;102099.88;692945;28;1229;-86
2022/12/17 13:31:12;;;;;;;55.83;32.42;;;;;;;-0.88;63.02;102084.69;687753;28;1078;-86
2022/12/17 13:32:01;;;;;;;50.80;29.35;;;;;;;-0.81;63.07;102094.72;681380;29;1095;-87
2022/12/17 13:32:55;;;;;;;52.30;28.08;;;;;;;-0.80;62.94;102082.84;686126;28;1220;-86
2022/12/17 13:33:21;;;;;;;49.47;26.05;;;;;;;-0.72;62.94;102093.06;686138;28;1105;-87
2022/12/17 13:33:57;;;;;;;45.15;23.85;;;;;;;-0.71;63.13;102088.84;680633;28;1339;-87
2022/12/17 13:34:33;;;;;;;52.05;27.60;;;;;;;-0.65;62.80;102102.25;683386;28;1217;-86
2022/12/17 13:35:05;;;;;;;61.08;32.72;;;;;;;-0.72;63.49;102079.34;683078;29;937;-87
2022/12/17 13:35:54;;;;;;;55.00;30.48;;;;;;;-0.54;63.09;102104.91;685768;28;1906;-86
2022/12/17 13:36:26;;;;;;;47.38;26.05;;;;;;;-0.55;63.03;102082.59;685757;28;1302;-86
2022/12/17 13:36:54;;;;;;;47.92;25.33;;;;;;;-0.53;62.90;102086.19;685854;28;960;-87
2022/12/17 13:37:36;;;;;;;49.10;24.73;;;;;;;-0.54;62.78;102082.75;689425;28;1095;-86
2022/12/17 13:38:08;;;;;;;48.25;24.23;;;;;;;-0.43;63.22;102100.03;690954;28;1185;-87
2022/12/17 13:38:48;;;;;;;47.95;24.13;;;;;;;-0.50;62.65;102091.63;688264;28;1050;-87
2022/12/17 13:39:50;;;;;;;48.90;23.30;;;;;;;-0.44;62.72;102095.66;685769;28;1109;-86
2022/12/17 13:40:34;;;;;;;44.85;22.40;;;;;;;-0.42;62.66;102100.97;683029;28;1114;-87
2022/12/17 13:41:03;;;;;;;46.78;22.10;;;;;;;-0.40;62.46;102094.31;677616;29;1455;-86
2022/12/17 13:41:29;;;;;;;44.83;22.75;;;;;;;-0.40;62.44;102088.28;682925;28;1398;-87
2022/12/17 13:41:56;;;;;;;47.00;23.95;;;;;;;-0.45;62.31;102085.28;685594;28;1076;-87
2022/12/17 13:42:24;;;;;;;47.53;24.30;;;;;;;-0.49;61.95;102083.19;688471;28;1279;-87
2022/12/17 13:42:46;;;;;;;45.75;24.50;;;;;;;-0.55;61.90;102072.34;682892;28;1425;-87
2022/12/17 13:43:22;;;;;;;46.50;24.60;;;;;;;-0.61;61.85;102068.47;682968;29;1013;-87
2022/12/17 13:43:45;;;;;;;44.50;23.70;;;;;;;-0.49;61.82;102098.56;682680;28;1236;-87
2022/12/17 13:44:20;;;;;;;44.28;22.92;;;;;;;-0.56;61.72;102089.41;685386;28;1316;-86
2022/12/17 13:44:45;;;;;;;46.17;23.10;;;;;;;-0.60;61.64;102079.59;680091;29;1191;-86
2022/12/17 13:45:06;;;;;;;45.60;23.50;;;;;;;-0.68;62.03;102068.63;680209;29;1114;-87
2022/12/17 13:45:27;;;;;;;42.83;22.63;;;;;;;-0.60;61.78;102079.59;685435;28;1086;-87
2022/12/17 13:45:50;;;;;;;43.10;21.80;;;;;;;-0.60;61.54;102095.91;682821;28;1228;-87
2022/12/17 13:46:21;;;;;;;45.60;22.77;;;;;;;-0.62;61.89;102088.81;682712;29;1142;-86
2022/12/17 13:46:44;;;;;;;45.80;23.30;;;;;;;-0.78;61.92;102065.94;685199;28;1055;-87
2022/12/17 13:47:20;;;;;;;45.00;22.85;;;;;;;-0.80;62.16;102070.94;682756;29;1353;-87
2022/12/17 13:47:41;;;;;;;50.67;23.35;;;;;;;-0.70;61.97;102088.06;682695;28;1296;-87
2022/12/17 13:48:02;;;;;;;53.42;23.42;;;;;;;-0.76;62.35;102079.81;682875;28;757;-87
2022/12/17 13:48:26;;;;;;;54.28;24.60;;;;;;;-0.73;62.12;102082.66;682845;28;1289;-87
2022/12/17 13:49:01;;;;;;;53.42;24.95;;;;;;;-0.80;62.01;102080.28;682914;29;1006;-87
2022/12/17 13:49:27;;;;;;;50.17;24.92;;;;;;;-0.83;62.28;102075.75;682702;29;1200;-86
2022/12/17 13:49:53;;;;;;;48.45;25.02;;;;;;;-0.77;62.74;102090.81;680225;29;977;-87
2022/12/17 13:50:21;;;;;;;47.55;24.88;;;;;;;-0.83;62.35;102069.75;685341;28;1127;-87
2022/12/17 13:50:53;;;;;;;46.53;23.33;;;;;;;-0.81;62.27;102081.91;679913;29;1311;-87
2022/12/17 13:51:18;;;;;;;51.85;24.42;;;;;;;-0.82;62.68;102075.00;682850;29;1033;-87
2022/12/17 13:51:39;;;;;;;56.55;26.95;;;;;;;-0.80;62.40;102070.94;680057;29;1150;-87
2022/12/17 13:52:02;;;;;;;55.87;26.57;;;;;;;-0.75;62.38;102089.31;685531;28;1057;-87
2022/12/17 13:52:25;;;;;;;56.90;28.63;;;;;;;-0.83;62.65;102080.00;685292;28;1422;-86
2022/12/17 13:52:46;;;;;;;56.28;29.42;;;;;;;-0.86;62.56;102076.34;679965;29;1326;-87
2022/12/17 13:53:11;;;;;;;55.67;28.83;;;;;;;-0.79;62.57;102087.19;682755;28;1212;-87
2022/12/17 13:53:36;;;;;;;53.83;26.80;;;;;;;-0.83;62.36;102077.44;680210;29;994;-87
2022/12/17 13:54:02;;;;;;;53.70;25.42;;;;;;;-0.84;62.48;102086.75;685283;28;1445;-87
2022/12/17 13:54:22;;;;;;;51.65;24.40;;;;;;;-0.84;62.65;102089.34;682601;28;1379;-86
2022/12/17 13:54:43;;;;;;;50.45;24.67;;;;;;;-0.90;62.30;102083.59;677371;29;1333;-88
2022/12/17 13:55:15;;;;;;;51.10;25.65;;;;;;;-0.91;62.33;102082.72;685453;28;1210;-84
2022/12/17 13:55:37;;;;;;;52.03;26.33;;;;;;;-0.89;62.51;102091.44;682593;29;1157;-84
2022/12/17 13:55:57;;;;;;;51.20;25.63;;;;;;;-0.93;62.26;102078.19;677551;29;1135;-83
2022/12/17 13:56:31;;;;;;;53.35;25.20;;;;;;;-0.94;62.52;102079.84;677490;29;1289;-83
2022/12/17 13:56:53;;;;;;;52.95;25.23;;;;;;;-0.89;62.24;102087.97;682739;29;1027;-84
2022/12/17 13:57:18;;;;;;;51.28;24.70;;;;;;;-0.92;62.56;102080.91;682845;28;1220;-84
2022/12/17 13:57:44;;;;;;;51.65;24.20;;;;;;;-0.90;62.19;102089.66;680021;28;1113;-84
2022/12/17 13:58:05;;;;;;;51.13;22.85;;;;;;;-0.91;62.28;102087.84;677790;29;1242;-82
2022/12/17 13:58:29;;;;;;;51.47;23.03;;;;;;;-0.86;62.16;102099.44;678059;29;1148;-83
2022/12/17 13:58:53;;;;;;;46.78;22.88;;;;;;;-0.92;61.90;102086.03;680616;29;969;-84
2022/12/17 13:59:19;;;;;;;44.28;22.85;;;;;;;-0.97;62.02;102084.69;683390;28;1298;-84
2022/12/17 13:59:40;;;;;;;44.22;23.10;;;;;;;-1.00;61.92;102077.59;683158;28;1088;-83
2022/12/17 14:00:03;;;;;;;46.80;23.20;;;;;;;-1.03;62.01;102081.53;683445;29;745;-83
2022/12/17 14:00:33;;;;;;;47.05;23.33;;;;;;;-1.06;61.88;102081.25;683226;28;1071;-84
2022/12/17 14:01:11;;;;;;;48.42;23.30;;;;;;;-1.06;61.88;102088.94;683440;29;1094;-84
2022/12/17 14:01:32;;;;;;;45.83;22.85;;;;;;;-1.13;62.18;102078.09;685903;28;1020;-83
2022/12/17 14:01:53;;;;;;;44.97;23.40;;;;;;;-1.15;61.93;102084.72;683315;29;1109;-83
2022/12/17 14:02:31;;;;;;;47.30;24.20;;;;;;;-1.21;61.86;102079.00;685978;28;1143;-83
2022/12/17 14:02:52;;;;;;;55.97;29.63;;;;;;;-1.22;61.89;102090.00;685951;28;1412;-83
2022/12/17 14:03:20;;;;;;;54.60;29.55;;;;;;;-1.26;61.79;102082.75;686042;28;1110;-83
2022/12/17 14:03:49;;;;;;;47.35;25.30;;;;;;;-1.30;61.92;102088.38;685843;28;1238;-83
2022/12/17 14:04:20;;;;;;;47.78;24.05;;;;;;;-1.34;61.80;102088.81;686097;28;1013;-83
2022/12/17 14:04:40;;;;;;;47.10;22.60;;;;;;;-1.34;61.79;102088.81;685714;28;1222;-83
2022/12/17 14:05:05;;;;;;;48.13;22.58;;;;;;;-1.37;62.05;102088.50;668809;28;3095;-83
2022/12/17 14:05:36;;;;;;;49.50;23.02;;;;;;;-1.43;61.87;102089.72;685266;28;1369;-83
2022/12/17 14:06:43;;;;;;;46.28;22.33;;;;;;;-1.34;62.17;102105.09;669492;28;3116;-83
2022/12/17 14:07:04;;;;;;;46.92;22.85;;;;;;;-1.34;62.30;102104.16;683074;28;1311;-83
2022/12/17 14:07:27;;;;;;;49.03;23.10;;;;;;;-1.43;62.17;102089.72;685550;28;1017;-83
2022/12/17 14:07:48;;;;;;;49.35;23.73;;;;;;;-1.48;62.45;102085.81;682124;28;1167;-83
2022/12/17 14:08:15;;;;;;;49.42;25.10;;;;;;;-1.49;62.26;102091.66;683384;28;1083;-84
2022/12/17 14:08:36;;;;;;;50.53;26.30;;;;;;;-1.45;62.12;102091.22;685790;28;1218;-83
2022/12/17 14:08:57;;;;;;;49.47;26.35;;;;;;;-1.46;62.07;102088.50;683017;28;1201;-84
2022/12/17 14:09:21;;;;;;;43.58;23.85;;;;;;;-1.44;62.21;102098.16;680500;28;1331;-83
2022/12/17 14:09:43;;;;;;;43.80;24.02;;;;;;;-1.53;62.43;102087.91;685817;28;1240;-83
2022/12/17 14:10:04;;;;;;;45.30;23.77;;;;;;;-1.50;62.24;102097.53;686024;28;1170;-83
2022/12/17 14:10:25;;;;;;;47.00;23.70;;;;;;;-1.50;62.35;102097.53;680534;28;1284;-83
2022/12/17 14:12:20;;;;;;;47.47;23.27;;;;;;;-1.54;62.46;102087.78;677983;28;1194;-83
2022/12/17 14:12:21;;;;;;;50.65;23.95;;;;;;;-1.58;62.20;102093.31;683288;29;997;-83
2022/12/17 14:12:42;;;;;;;46.97;23.55;;;;;;;-1.59;62.50;102094.09;680470;29;1258;-84
2022/12/17 14:13:09;;;;;;;45.70;23.05;;;;;;;-1.65;62.08;102080.66;680620;29;1191;-83
2022/12/17 14:13:29;;;;;;;45.22;23.58;;;;;;;-1.65;61.98;102090.91;683022;28;1143;-83
2022/12/17 14:13:50;;;;;;;46.57;24.13;;;;;;;-1.71;62.20;102092.13;683354;28;998;-83
2022/12/17 14:14:32;;;;;;;49.95;24.17;;;;;;;-1.63;62.12;102115.03;685842;28;1011;-84
2022/12/17 14:14:59;;;;;;;51.63;25.10;;;;;;;-1.75;62.02;102095.13;685754;28;1139;-83
2022/12/17 14:15:28;;;;;;;48.80;24.05;;;;;;;-1.71;62.13;102110.06;685324;28;1910;-83
2022/12/17 14:15:51;;;;;;;45.20;22.95;;;;;;;-1.74;62.25;102101.16;683265;28;1081;-83
2022/12/17 14:16:20;;;;;;;45.53;23.30;;;;;;;-1.74;62.16;102107.16;677878;29;1407;-83
2022/12/17 14:16:41;;;;;;;47.92;24.50;;;;;;;-1.83;62.13;102093.47;680360;29;994;-83
2022/12/17 14:17:02;;;;;;;50.45;24.83;;;;;;;-1.84;62.18;102090.00;680580;29;1122;-83
2022/12/17 14:17:28;;;;;;;50.15;24.90;;;;;;;-1.86;62.16;102093.16;675331;29;1329;-83
2022/12/17 14:17:50;;;;;;;49.28;23.90;;;;;;;-1.88;62.11;102087.88;683168;29;1127;-83
2022/12/17 14:18:17;;;;;;;47.38;23.42;;;;;;;-1.98;61.84;102093.72;685906;28;1358;-83
2022/12/17 14:18:40;;;;;;;44.20;23.02;;;;;;;-2.07;62.47;102090.25;683079;28;997;-83
2022/12/17 14:19:01;;;;;;;45.17;22.70;;;;;;;-2.07;62.55;102095.38;686062;28;757;-83
2022/12/17 14:19:23;;;;;;;44.93;22.40;;;;;;;-2.14;62.38;102098.06;683298;28;1373;-83
2022/12/17 14:19:44;;;;;;;43.74;22.28;;;;;;;-2.17;62.70;102092.66;683114;29;1181;-83
2022/12/17 14:20:10;;;;;;;47.47;23.57;;;;;;;-2.18;62.94;102091.72;683196;29;1216;-83
2022/12/17 14:20:35;;;;;;;48.15;24.67;;;;;;;-2.26;63.05;102092.59;683182;29;1205;-84
2022/12/17 14:20:56;;;;;;;47.13;23.65;;;;;;;-2.22;63.23;102116.09;680528;29;996;-83
2022/12/17 14:21:17;;;;;;;44.10;22.80;;;;;;;-2.34;63.34;102104.63;683282;29;1024;-83
2022/12/17 14:21:40;;;;;;;42.75;22.55;;;;;;;-2.29;63.37;102113.66;682792;28;1186;-83
2022/12/17 14:22:01;;;;;;;41.65;22.42;;;;;;;-2.29;63.74;102112.75;680575;29;787;-83
2022/12/17 14:22:34;;;;;;;43.08;22.40;;;;;;;-2.37;63.62;102099.19;685836;28;1235;-83
2022/12/17 14:23:00;;;;;;;43.58;22.33;;;;;;;-2.32;63.62;102105.69;685949;28;1027;-83
2022/12/17 14:23:30;;;;;;;42.38;22.40;;;;;;;-2.39;63.88;102100.69;683169;28;1068;-83
2022/12/17 14:23:52;;;;;;;46.75;22.83;;;;;;;-2.32;63.77;102109.88;682986;29;1088;-83
2022/12/17 14:24:13;;;;;;;47.22;22.23;;;;;;;-2.36;63.69;102095.88;683244;29;1309;-83
2022/12/17 14:24:33;;;;;;;43.75;21.45;;;;;;;-2.42;63.84;102097.81;685731;28;1352;-83
2022/12/17 14:24:54;;;;;;;44.70;21.58;;;;;;;-2.33;63.82;102109.00;683278;29;1199;-83
2022/12/17 14:25:24;;;;;;;43.20;22.08;;;;;;;-2.35;63.61;102113.06;682453;29;1236;-83
2022/12/17 14:25:45;;;;;;;43.47;21.88;;;;;;;-2.47;63.90;102091.31;680455;29;1269;-83
2022/12/17 14:26:09;;;;;;;43.55;22.15;;;;;;;-2.45;63.87;102094.94;680574;29;1222;-83
2022/12/17 14:26:30;;;;;;;44.45;23.15;;;;;;;-2.41;63.83;102102.19;675278;29;990;-83
2022/12/17 14:26:54;;;;;;;45.67;23.70;;;;;;;-2.36;63.84;102106.09;680255;29;1173;-83
2022/12/17 14:27:30;;;;;;;46.13;23.08;;;;;;;-2.27;63.73;102122.41;683101;28;1284;-83
2022/12/17 14:27:57;;;;;;;45.80;22.50;;;;;;;-2.27;63.86;102101.03;680539;29;1093;-82
2022/12/17 14:28:43;;;;;;;46.24;22.56;;;;;;;-2.12;63.49;102119.56;683200;29;1167;-83
2022/12/17 14:29:12;;;;;;;44.28;21.85;;;;;;;-2.14;63.14;102106.66;683143;29;1233;-83
2022/12/17 14:29:32;;;;;;;41.60;21.25;;;;;;;-2.11;62.96;102109.50;680639;29;1002;-83
2022/12/17 14:29:53;;;;;;;41.13;21.33;;;;;;;-2.03;63.04;102119.59;680455;28;1140;-83
2022/12/17 14:30:41;;;;;;;42.00;21.33;;;;;;;-2.07;63.35;102103.03;678028;29;1192;-83
2022/12/17 14:31:28;;;;;;;44.97;21.67;;;;;;;-2.04;63.09;102105.91;680291;29;1180;-83
2022/12/17 14:31:56;;;;;;;45.38;21.25;;;;;;;-2.01;63.11;102116.47;684240;28;1455;-83
2022/12/17 14:32:23;;;;;;;45.65;21.38;;;;;;;-2.03;63.05;102101.69;685698;28;1359;-83
2022/12/17 14:32:44;;;;;;;45.14;21.62;;;;;;;-1.98;62.82;102105.63;685772;28;1260;-83
2022/12/17 14:33:25;;;;;;;44.50;21.73;;;;;;;-1.90;62.88;102120.09;680660;29;1029;-83
2022/12/17 14:33:58;;;;;;;45.97;22.20;;;;;;;-2.06;62.91;102101.41;680404;29;1245;-83
2022/12/17 14:34:19;;;;;;;45.72;21.83;;;;;;;-2.00;62.91;102114.78;683237;29;1080;-83
2022/12/17 14:34:41;;;;;;;45.30;21.50;;;;;;;-2.09;62.81;102092.66;683125;29;1189;-83
2022/12/17 14:35:02;;;;;;;41.45;21.35;;;;;;;-2.00;62.39;102113.16;683351;29;916;-83
2022/12/17 14:35:38;;;;;;;39.55;21.55;;;;;;;-2.01;62.73;102113.91;680429;29;1922;-83
2022/12/17 14:36:02;;;;;;;40.47;21.10;;;;;;;-2.06;62.67;102107.41;678048;29;879;-83
2022/12/17 14:36:23;;;;;;;41.20;20.70;;;;;;;-2.11;62.42;102098.38;680508;29;1424;-83
2022/12/17 14:36:45;;;;;;;39.17;20.47;;;;;;;-2.04;62.53;102112.69;680428;29;1038;-83
2022/12/17 14:37:16;;;;;;;35.70;19.90;;;;;;;-2.10;62.39;102105.31;678067;29;1075;-83
2022/12/17 14:37:36;;;;;;;39.72;19.70;;;;;;;-2.12;62.80;102104.22;677895;29;1001;-83
2022/12/17 14:37:57;;;;;;;41.72;19.65;;;;;;;-2.13;62.48;102110.09;680600;29;1115;-83
2022/12/17 14:38:18;;;;;;;40.50;19.60;;;;;;;-2.13;62.54;102113.56;683181;29;993;-83
2022/12/17 14:38:39;;;;;;;40.17;20.55;;;;;;;-2.17;62.55;102102.88;683199;28;1220;-83
2022/12/17 14:39:02;;;;;;;40.13;20.65;;;;;;;-2.19;62.59;102106.94;680558;29;764;-83
2022/12/17 14:39:24;;;;;;;41.28;20.73;;;;;;;-2.14;62.59;102123.63;683189;29;1262;-83
2022/12/17 14:39:47;;;;;;;38.80;19.70;;;;;;;-2.19;62.59;102110.38;688531;28;1353;-83
2022/12/17 14:40:13;;;;;;;38.05;19.55;;;;;;;-2.21;62.38;102111.88;683355;29;1006;-83
2022/12/17 14:40:33;;;;;;;38.85;19.02;;;;;;;-2.19;62.43;102107.81;685834;28;972;-83
2022/12/17 14:41:01;;;;;;;38.83;19.60;;;;;;;-2.13;62.39;102118.69;685942;28;1031;-83
2022/12/17 14:42:27;;;;;;;43.47;19.33;;;;;;;-2.25;62.57;102118.34;683180;29;1293;-83
2022/12/17 14:42:48;;;;;;;40.05;20.35;;;;;;;-2.30;62.46;102116.97;679606;29;942;-83
2022/12/17 14:43:12;;;;;;;39.85;20.15;;;;;;;-2.33;62.62;102111.53;682265;28;1239;-83
2022/12/17 14:43:33;;;;;;;40.78;20.27;;;;;;;-2.34;62.58;102119.97;685847;28;1029;-83
2022/12/17 14:43:59;;;;;;;41.08;20.55;;;;;;;-2.40;62.66;102109.09;688523;28;1087;-83
2022/12/17 14:44:23;;;;;;;42.42;21.25;;;;;;;-2.37;62.84;102115.44;680548;28;1100;-83
2022/12/17 14:44:50;;;;;;;40.85;20.65;;;;;;;-2.38;62.75;102112.72;683211;29;994;-83
2022/12/17 14:45:13;;;;;;;38.65;20.67;;;;;;;-2.34;62.58;102119.97;683277;29;1102;-83
2022/12/17 14:46:19;;;;;;;36.58;19.80;;;;;;;-2.42;62.71;102102.94;685861;28;1203;-83
2022/12/17 14:46:20;;;;;;;35.88;18.85;;;;;;;-2.50;62.79;102097.94;686679;28;1229;-83
2022/12/17 14:46:41;;;;;;;36.63;18.02;;;;;;;-2.51;63.06;102101.25;683469;28;1104;-83
2022/12/17 14:47:20;;;;;;;36.92;18.30;;;;;;;-2.53;63.01;102100.16;685886;28;1197;-83
2022/12/17 14:48:05;;;;;;;35.15;19.45;;;;;;;-2.49;63.32;102101.38;688521;28;1048;-83
2022/12/17 14:48:59;;;;;;;35.15;19.33;;;;;;;-2.54;62.99;102106.03;685645;28;1355;-83
2022/12/17 14:49:19;;;;;;;35.85;18.40;;;;;;;-2.58;62.99;102093.69;688366;28;1246;-84
2022/12/17 14:49:52;;;;;;;36.58;17.50;;;;;;;-2.45;63.13;102120.50;685741;28;1075;-83
2022/12/17 14:50:16;;;;;;;36.92;18.10;;;;;;;-2.46;62.94;102119.63;685207;28;987;-83
2022/12/17 14:50:37;;;;;;;37.42;19.10;;;;;;;-2.60;63.22;102094.28;685826;28;1315;-83
2022/12/17 14:50:58;;;;;;;38.23;19.00;;;;;;;-2.60;63.25;102107.94;680385;28;1368;-83
2022/12/17 14:51:22;;;;;;;39.70;18.80;;;;;;;-2.63;63.24;102102.53;680665;29;1103;-82
2022/12/17 14:51:43;;;;;;;37.10;18.20;;;;;;;-2.63;63.32;102106.00;683271;29;970;-83
2022/12/17 14:52:13;;;;;;;37.75;18.58;;;;;;;-2.59;63.63;102117.47;677937;29;1209;-83
2022/12/17 14:52:49;;;;;;;37.10;18.00;;;;;;;-2.56;63.06;102120.31;682717;29;1138;-82
2022/12/17 14:53:25;;;;;;;37.50;17.80;;;;;;;-2.71;63.17;102088.06;685725;28;1138;-83
2022/12/17 14:53:52;;;;;;;41.10;19.05;;;;;;;-2.68;63.03;102113.94;686096;28;985;-83
2022/12/17 14:54:13;;;;;;;40.17;19.10;;;;;;;-2.60;63.55;102125.84;685886;28;968;-83
2022/12/17 14:54:33;;;;;;;37.55;18.33;;;;;;;-2.69;63.43;102107.00;685879;28;1088;-83
2022/12/17 14:54:54;;;;;;;39.50;19.10;;;;;;;-2.65;63.36;102117.69;685932;28;1185;-83
2022/12/17 14:55:26;;;;;;;40.35;19.13;;;;;;;-2.63;63.20;102125.53;685953;28;1902;-83
2022/12/17 14:55:57;;;;;;;36.96;18.80;;;;;;;-2.69;63.49;102114.69;685919;28;1126;-83
2022/12/17 14:56:22;;;;;;;34.95;18.48;;;;;;;-2.71;63.51;102113.63;683340;29;1076;-83
2022/12/17 14:56:44;;;;;;;37.58;19.30;;;;;;;-2.71;63.52;102114.53;683888;28;1091;-83
2022/12/17 14:57:19;;;;;;;39.25;19.55;;;;;;;-2.80;63.26;102101.69;684353;28;998;-82
2022/12/17 14:57:39;;;;;;;37.33;19.35;;;;;;;-2.68;63.49;102126.69;685610;28;1016;-83
2022/12/17 14:58:07;;;;;;;36.73;19.43;;;;;;;-2.67;63.20;102133.66;686172;28;784;-83
2022/12/17 14:58:27;;;;;;;36.20;19.60;;;;;;;-2.75;63.30;102116.59;688931;28;1059;-82
2022/12/17 14:58:48;;;;;;;36.70;19.77;;;;;;;-2.82;63.53;102118.53;691290;28;1083;-83
2022/12/17 14:59:25;;;;;;;38.13;19.10;;;;;;;-2.84;63.43;102122.56;688703;28;1093;-82
2022/12/17 14:59:47;;;;;;;46.25;18.60;;;;;;;-2.85;63.27;102119.88;682985;28;992;-83
2022/12/17 15:00:08;;;;;;;51.65;18.77;;;;;;;-2.85;63.50;102123.31;683335;29;1107;-82
2022/12/17 15:00:28;;;;;;;46.72;19.25;;;;;;;-2.86;63.10;102118.06;683119;28;1237;-83
2022/12/17 15:00:49;;;;;;;43.85;19.48;;;;;;;-2.74;63.50;102141.44;680454;29;1081;-82
2022/12/17 15:01:12;;;;;;;39.67;19.77;;;;;;;-2.88;63.64;102117.88;685948;28;1088;-82
2022/12/17 15:01:33;;;;;;;40.95;19.50;;;;;;;-2.85;63.25;102130.97;685764;28;928;-83
2022/12/17 15:01:54;;;;;;;43.72;19.15;;;;;;;-2.87;63.09;102124.81;683312;28;1257;-82
2022/12/17 15:02:25;;;;;;;43.47;19.50;;;;;;;-2.81;63.12;102130.56;688522;28;1265;-82
2022/12/17 15:02:53;;;;;;;41.97;20.90;;;;;;;-2.85;63.49;102138.63;688338;28;973;-82
2022/12/17 15:03:26;;;;;;;40.20;20.48;;;;;;;-2.97;63.51;102122.03;685763;28;1264;-83
2022/12/17 15:03:46;;;;;;;36.55;18.88;;;;;;;-2.95;63.27;102135.88;685777;28;1399;-82
2022/12/17 15:04:07;;;;;;;37.40;19.08;;;;;;;-2.98;63.66;102123.69;680509;29;1320;-82
2022/12/17 15:04:31;;;;;;;39.00;19.35;;;;;;;-2.95;63.48;102141.91;680533;29;972;-83
2022/12/17 15:04:55;;;;;;;36.28;18.85;;;;;;;-2.98;63.51;102123.69;680480;29;1123;-83
2022/12/17 15:05:16;;;;;;;38.28;19.02;;;;;;;-2.91;63.43;102145.66;683134;29;1136;-83
2022/12/17 15:05:37;;;;;;;39.42;18.73;;;;;;;-3.01;63.24;102127.56;685737;28;1311;-82
2022/12/17 15:06:02;;;;;;;40.05;18.27;;;;;;;-2.92;63.53;102142.22;683181;28;1188;-82
2022/12/17 15:06:22;;;;;;;42.20;18.96;;;;;;;-3.00;63.45;102129.38;685662;28;1465;-82
2022/12/17 15:06:43;;;;;;;41.07;19.20;;;;;;;-2.90;63.41;102150.03;682827;29;1349;-82
2022/12/17 15:07:05;;;;;;;40.95;18.80;;;;;;;-2.97;63.55;102137.38;677741;29;1013;-83
2022/12/17 15:07:30;;;;;;;36.38;18.67;;;;;;;-2.92;63.44;102141.28;680457;29;1005;-82
2022/12/17 15:07:50;;;;;;;38.08;18.85;;;;;;;-2.99;63.26;102128.63;680418;29;977;-83
2022/12/17 15:08:11;;;;;;;37.10;18.77;;;;;;;-3.02;63.62;102133.41;683204;28;1112;-83
2022/12/17 15:08:35;;;;;;;37.15;18.35;;;;;;;-3.00;63.32;102129.38;680435;29;1372;-83
2022/12/17 15:08:56;;;;;;;35.97;18.70;;;;;;;-2.96;63.37;102139.19;680157;29;1142;-83
2022/12/17 15:09:16;;;;;;;37.92;19.63;;;;;;;-3.01;63.41;102130.13;680571;29;1203;-82
2022/12/17 15:09:37;;;;;;;36.97;20.13;;;;;;;-2.98;63.43;102136.44;682961;28;1183;-83
2022/12/17 15:09:58;;;;;;;38.08;20.35;;;;;;;-3.00;63.36;102132.84;683349;28;1280;-83
2022/12/17 15:10:19;;;;;;;35.93;19.43;;;;;;;-3.00;63.43;102137.03;682995;28;1142;-83
2022/12/17 15:10:40;;;;;;;41.03;19.40;;;;;;;-3.04;63.53;102130.69;683005;29;1249;-83
2022/12/17 15:11:01;;;;;;;41.67;20.17;;;;;;;-3.08;63.72;102123.47;683258;29;736;-82
2022/12/17 15:11:22;;;;;;;46.75;20.50;;;;;;;-2.99;63.59;102141.38;680393;29;1237;-82
2022/12/17 15:11:43;;;;;;;48.72;20.08;;;;;;;-3.00;63.57;102135.41;682962;29;1226;-82
2022/12/17 15:12:04;;;;;;;46.78;19.58;;;;;;;-3.06;63.33;102128.00;683071;28;1205;-83
2022/12/17 15:12:26;;;;;;;40.20;19.55;;;;;;;-3.08;63.80;102121.81;683282;29;1147;-83
2022/12/17 15:12:50;;;;;;;39.20;19.80;;;;;;;-3.08;63.54;102124.34;682840;29;1184;-82
2022/12/17 15:13:10;;;;;;;38.95;19.15;;;;;;;-3.04;63.32;102133.25;683171;29;1152;-82
2022/12/17 15:13:31;;;;;;;36.03;19.00;;;;;;;-3.01;63.70;102137.78;683051;28;1359;-82
2022/12/17 15:13:52;;;;;;;36.23;18.87;;;;;;;-3.09;63.49;102120.00;683058;29;1192;-83